sensor_id;sensor_type;location;lat;lon;timestamp;temperature;humidity
58413;DHT22;44209;52.952;6.790;2022-12-29T00:02:14;9.90;99.90
58413;DHT22;44209;52.952;6.790;2022-12-29T00:04:40;9.90;99.90
58413;DHT22;44209;52.952;6.790;2022-12-29T00:07:06;10.00;99.90
58413;DHT22;44209;52.952;6.790;2022-12-29T00:09:32;10.00;99.90
58413;DHT22;44209;52.952;6.790;2022-12-29T00:11:59;10.00;99.90
58413;DHT22;44209;52.952;6.790;2022-12-29T00:14:26;10.00;99.90
58413;DHT22;44209;52.952;6.790;2022-12-29T00:17:10;10.00;99.90
58413;DHT22;44209;52.952;6.790;2022-12-29T00:19:36;10.00;99.90
58413;DHT22;44209;52.952;6.790;2022-12-29T00:22:20;10.00;99.90
58413;DHT22;44209;52.952;6.790;2022-12-29T00:25:07;10.00;99.90
58413;DHT22;44209;52.952;6.790;2022-12-29T00:27:51;10.00;99.90
58413;DHT22;44209;52.952;6.790;2022-12-29T00:30:35;10.00;99.90
58413;DHT22;44209;52.952;6.790;2022-12-29T00:33:21;9.90;99.90
58413;DHT22;44209;52.952;6.790;2022-12-29T00:36:19;10.00;99.90
58413;DHT22;44209;52.952;6.790;2022-12-29T00:38:55;10.00;99.90
58413;DHT22;44209;52.952;6.790;2022-12-29T00:41:40;10.00;99.90
58413;DHT22;44209;52.952;6.790;2022-12-29T00:44:24;10.00;99.90
58413;DHT22;44209;52.952;6.790;2022-12-29T00:46:50;10.00;99.90
58413;DHT22;44209;52.952;6.790;2022-12-29T00:49:16;10.00;99.90
58413;DHT22;44209;52.952;6.790;2022-12-29T00:52:17;10.00;99.90
58413;DHT22;44209;52.952;6.790;2022-12-29T00:54:42;10.00;99.90
58413;DHT22;44209;52.952;6.790;2022-12-29T00:57:10;10.00;99.90
58413;DHT22;44209;52.952;6.790;2022-12-29T00:59:38;10.00;99.90
58413;DHT22;44209;52.952;6.790;2022-12-29T01:02:05;10.10;99.90
58413;DHT22;44209;52.952;6.790;2022-12-29T01:04:31;10.10;99.90
58413;DHT22;44209;52.952;6.790;2022-12-29T01:06:57;10.10;99.90
58413;DHT22;44209;52.952;6.790;2022-12-29T01:09:23;10.10;99.90
58413;DHT22;44209;52.952;6.790;2022-12-29T01:12:08;10.20;99.90
58413;DHT22;44209;52.952;6.790;2022-12-29T01:14:35;10.20;99.90
58413;DHT22;44209;52.952;6.790;2022-12-29T01:17:00;10.20;99.90
58413;DHT22;44209;52.952;6.790;2022-12-29T01:19:27;10.20;99.90
58413;DHT22;44209;52.952;6.790;2022-12-29T01:21:52;10.20;99.90
58413;DHT22;44209;52.952;6.790;2022-12-29T01:24:19;10.20;99.90
58413;DHT22;44209;52.952;6.790;2022-12-29T01:26:46;10.20;99.90
58413;DHT22;44209;52.952;6.790;2022-12-29T01:29:12;10.20;99.90
58413;DHT22;44209;52.952;6.790;2022-12-29T01:31:38;10.20;99.90
58413;DHT22;44209;52.952;6.790;2022-12-29T01:34:04;10.20;99.90
58413;DHT22;44209;52.952;6.790;2022-12-29T01:36:30;10.20;99.90
58413;DHT22;44209;52.952;6.790;2022-12-29T01:38:56;10.20;99.90
58413;DHT22;44209;52.952;6.790;2022-12-29T01:41:22;10.20;99.90
58413;DHT22;44209;52.952;6.790;2022-12-29T01:43:51;10.20;99.90
58413;DHT22;44209;52.952;6.790;2022-12-29T01:46:25;10.30;99.90
58413;DHT22;44209;52.952;6.790;2022-12-29T01:51:31;10.30;99.90
58413;DHT22;44209;52.952;6.790;2022-12-29T01:54:01;10.30;99.90
58413;DHT22;44209;52.952;6.790;2022-12-29T01:56:28;10.30;99.90
58413;DHT22;44209;52.952;6.790;2022-12-29T01:59:05;10.30;99.90
58413;DHT22;44209;52.952;6.790;2022-12-29T02:01:32;10.30;99.90
58413;DHT22;44209;52.952;6.790;2022-12-29T02:03:58;10.40;99.90
58413;DHT22;44209;52.952;6.790;2022-12-29T02:06:29;10.40;99.90
58413;DHT22;44209;52.952;6.790;2022-12-29T02:08:56;10.40;99.90
58413;DHT22;44209;52.952;6.790;2022-12-29T02:11:25;10.40;99.90
58413;DHT22;44209;52.952;6.790;2022-12-29T02:13:51;10.40;99.90
58413;DHT22;44209;52.952;6.790;2022-12-29T02:18:59;10.40;99.90
58413;DHT22;44209;52.952;6.790;2022-12-29T02:21:48;10.40;99.90
58413;DHT22;44209;52.952;6.790;2022-12-29T02:30:57;10.40;99.90
58413;DHT22;44209;52.952;6.790;2022-12-29T02:39:10;10.50;99.90
58413;DHT22;44209;52.952;6.790;2022-12-29T02:44:34;10.50;99.90
58413;DHT22;44209;52.952;6.790;2022-12-29T02:47:08;10.50;99.90
58413;DHT22;44209;52.952;6.790;2022-12-29T02:50:14;10.40;99.90
58413;DHT22;44209;52.952;6.790;2022-12-29T02:52:37;10.40;99.90
58413;DHT22;44209;52.952;6.790;2022-12-29T02:55:04;10.40;99.90
58413;DHT22;44209;52.952;6.790;2022-12-29T02:57:35;10.40;99.90
58413;DHT22;44209;52.952;6.790;2022-12-29T03:00:07;10.40;99.90
58413;DHT22;44209;52.952;6.790;2022-12-29T03:02:57;10.40;99.90
58413;DHT22;44209;52.952;6.790;2022-12-29T03:06:03;10.40;99.90
58413;DHT22;44209;52.952;6.790;2022-12-29T03:11:27;10.30;99.90
58413;DHT22;44209;52.952;6.790;2022-12-29T03:14:29;10.30;99.90
58413;DHT22;44209;52.952;6.790;2022-12-29T03:20:24;10.30;99.90
58413;DHT22;44209;52.952;6.790;2022-12-29T03:22:55;10.30;99.90
58413;DHT22;44209;52.952;6.790;2022-12-29T03:25:44;10.30;99.90
58413;DHT22;44209;52.952;6.790;2022-12-29T03:28:15;10.40;99.90
58413;DHT22;44209;52.952;6.790;2022-12-29T03:30:43;10.40;99.90
58413;DHT22;44209;52.952;6.790;2022-12-29T03:33:13;10.40;99.90
58413;DHT22;44209;52.952;6.790;2022-12-29T03:35:42;10.30;99.90
58413;DHT22;44209;52.952;6.790;2022-12-29T03:38:35;10.40;99.90
58413;DHT22;44209;52.952;6.790;2022-12-29T03:41:06;10.40;99.90
58413;DHT22;44209;52.952;6.790;2022-12-29T03:43:33;10.40;99.90
58413;DHT22;44209;52.952;6.790;2022-12-29T03:45:59;10.40;99.90
58413;DHT22;44209;52.952;6.790;2022-12-29T03:48:25;10.40;99.90
58413;DHT22;44209;52.952;6.790;2022-12-29T03:50:50;10.40;99.90
58413;DHT22;44209;52.952;6.790;2022-12-29T03:53:16;10.30;99.90
58413;DHT22;44209;52.952;6.790;2022-12-29T03:55:42;10.40;99.90
58413;DHT22;44209;52.952;6.790;2022-12-29T03:58:08;10.30;99.90
58413;DHT22;44209;52.952;6.790;2022-12-29T04:00:33;10.30;99.90
58413;DHT22;44209;52.952;6.790;2022-12-29T04:02:59;10.30;99.90
58413;DHT22;44209;52.952;6.790;2022-12-29T04:05:25;10.40;99.90
58413;DHT22;44209;52.952;6.790;2022-12-29T04:07:51;10.40;99.90
58413;DHT22;44209;52.952;6.790;2022-12-29T04:10:16;10.40;99.90
58413;DHT22;44209;52.952;6.790;2022-12-29T04:12:42;10.40;99.90
58413;DHT22;44209;52.952;6.790;2022-12-29T04:15:09;10.40;99.90
58413;DHT22;44209;52.952;6.790;2022-12-29T04:17:35;10.40;99.90
58413;DHT22;44209;52.952;6.790;2022-12-29T04:20:00;10.30;99.90
58413;DHT22;44209;52.952;6.790;2022-12-29T04:22:45;10.30;99.90
58413;DHT22;44209;52.952;6.790;2022-12-29T04:25:10;10.30;99.90
58413;DHT22;44209;52.952;6.790;2022-12-29T04:27:36;10.30;99.90
58413;DHT22;44209;52.952;6.790;2022-12-29T04:30:02;10.20;99.90
58413;DHT22;44209;52.952;6.790;2022-12-29T04:32:28;10.20;99.90
58413;DHT22;44209;52.952;6.790;2022-12-29T04:34:54;10.20;99.90
58413;DHT22;44209;52.952;6.790;2022-12-29T04:37:19;10.10;99.90
58413;DHT22;44209;52.952;6.790;2022-12-29T04:39:45;10.00;99.90
58413;DHT22;44209;52.952;6.790;2022-12-29T04:42:11;10.00;99.90
58413;DHT22;44209;52.952;6.790;2022-12-29T04:44:36;9.90;99.90
58413;DHT22;44209;52.952;6.790;2022-12-29T04:47:02;9.80;99.90
58413;DHT22;44209;52.952;6.790;2022-12-29T04:49:28;9.80;99.90
58413;DHT22;44209;52.952;6.790;2022-12-29T04:51:53;9.80;99.90
58413;DHT22;44209;52.952;6.790;2022-12-29T04:54:19;9.70;99.90
58413;DHT22;44209;52.952;6.790;2022-12-29T04:56:45;9.70;99.90
58413;DHT22;44209;52.952;6.790;2022-12-29T04:59:10;9.70;99.90
58413;DHT22;44209;52.952;6.790;2022-12-29T05:01:36;9.70;99.90
58413;DHT22;44209;52.952;6.790;2022-12-29T05:04:02;9.80;99.90
58413;DHT22;44209;52.952;6.790;2022-12-29T05:06:28;9.80;99.90
58413;DHT22;44209;52.952;6.790;2022-12-29T05:08:53;9.80;99.90
58413;DHT22;44209;52.952;6.790;2022-12-29T05:11:19;9.70;99.90
58413;DHT22;44209;52.952;6.790;2022-12-29T05:13:45;9.70;99.90
58413;DHT22;44209;52.952;6.790;2022-12-29T05:16:12;9.70;99.90
58413;DHT22;44209;52.952;6.790;2022-12-29T05:18:38;9.70;99.90
58413;DHT22;44209;52.952;6.790;2022-12-29T05:21:03;9.70;99.90
58413;DHT22;44209;52.952;6.790;2022-12-29T05:23:29;9.70;99.90
58413;DHT22;44209;52.952;6.790;2022-12-29T05:25:55;9.70;99.90
58413;DHT22;44209;52.952;6.790;2022-12-29T05:28:21;9.70;99.90
58413;DHT22;44209;52.952;6.790;2022-12-29T05:30:50;9.70;99.90
58413;DHT22;44209;52.952;6.790;2022-12-29T05:33:17;9.70;99.90
58413;DHT22;44209;52.952;6.790;2022-12-29T05:35:43;9.60;99.90
58413;DHT22;44209;52.952;6.790;2022-12-29T05:38:08;9.60;99.90
58413;DHT22;44209;52.952;6.790;2022-12-29T05:40:35;9.70;99.90
58413;DHT22;44209;52.952;6.790;2022-12-29T05:43:00;9.70;99.90
58413;DHT22;44209;52.952;6.790;2022-12-29T05:45:26;9.60;99.90
58413;DHT22;44209;52.952;6.790;2022-12-29T05:47:52;9.60;99.90
58413;DHT22;44209;52.952;6.790;2022-12-29T05:50:18;9.60;99.90
58413;DHT22;44209;52.952;6.790;2022-12-29T05:52:43;9.60;99.90
58413;DHT22;44209;52.952;6.790;2022-12-29T05:55:10;9.60;99.90
58413;DHT22;44209;52.952;6.790;2022-12-29T05:57:35;9.60;99.90
58413;DHT22;44209;52.952;6.790;2022-12-29T06:00:03;9.60;99.90
58413;DHT22;44209;52.952;6.790;2022-12-29T06:02:29;9.50;99.90
58413;DHT22;44209;52.952;6.790;2022-12-29T06:04:54;9.60;99.90
58413;DHT22;44209;52.952;6.790;2022-12-29T06:07:20;9.60;99.90
58413;DHT22;44209;52.952;6.790;2022-12-29T06:09:46;9.60;99.90
58413;DHT22;44209;52.952;6.790;2022-12-29T06:12:12;9.60;99.90
58413;DHT22;44209;52.952;6.790;2022-12-29T06:14:37;9.60;99.90
58413;DHT22;44209;52.952;6.790;2022-12-29T06:17:03;9.60;99.90
58413;DHT22;44209;52.952;6.790;2022-12-29T06:19:29;9.70;99.90
58413;DHT22;44209;52.952;6.790;2022-12-29T06:21:55;9.70;99.90
58413;DHT22;44209;52.952;6.790;2022-12-29T06:24:21;9.70;99.90
58413;DHT22;44209;52.952;6.790;2022-12-29T06:26:47;9.70;99.90
58413;DHT22;44209;52.952;6.790;2022-12-29T06:29:12;9.70;99.90
58413;DHT22;44209;52.952;6.790;2022-12-29T06:31:42;9.70;99.90
58413;DHT22;44209;52.952;6.790;2022-12-29T06:34:11;9.70;99.90
58413;DHT22;44209;52.952;6.790;2022-12-29T06:36:37;9.70;99.90
58413;DHT22;44209;52.952;6.790;2022-12-29T06:39:03;9.70;99.90
58413;DHT22;44209;52.952;6.790;2022-12-29T06:41:29;9.70;99.90
58413;DHT22;44209;52.952;6.790;2022-12-29T06:43:55;9.80;99.90
58413;DHT22;44209;52.952;6.790;2022-12-29T06:46:20;9.80;99.90
58413;DHT22;44209;52.952;6.790;2022-12-29T06:48:46;9.80;99.90
58413;DHT22;44209;52.952;6.790;2022-12-29T06:51:12;9.80;99.90
58413;DHT22;44209;52.952;6.790;2022-12-29T06:53:37;9.80;99.90
58413;DHT22;44209;52.952;6.790;2022-12-29T06:56:03;9.80;99.90
58413;DHT22;44209;52.952;6.790;2022-12-29T06:58:30;9.80;99.90
58413;DHT22;44209;52.952;6.790;2022-12-29T07:00:56;9.80;99.90
58413;DHT22;44209;52.952;6.790;2022-12-29T07:03:21;9.80;99.90
58413;DHT22;44209;52.952;6.790;2022-12-29T07:05:47;9.80;99.90
58413;DHT22;44209;52.952;6.790;2022-12-29T07:08:13;9.80;99.90
58413;DHT22;44209;52.952;6.790;2022-12-29T07:10:39;9.80;99.90
58413;DHT22;44209;52.952;6.790;2022-12-29T07:13:05;9.80;99.90
58413;DHT22;44209;52.952;6.790;2022-12-29T07:15:33;9.80;99.90
58413;DHT22;44209;52.952;6.790;2022-12-29T07:17:59;9.80;99.90
58413;DHT22;44209;52.952;6.790;2022-12-29T07:20:25;9.80;99.90
58413;DHT22;44209;52.952;6.790;2022-12-29T07:22:51;9.70;99.90
58413;DHT22;44209;52.952;6.790;2022-12-29T07:25:16;9.80;99.90
58413;DHT22;44209;52.952;6.790;2022-12-29T07:27:42;9.70;99.90
58413;DHT22;44209;52.952;6.790;2022-12-29T07:30:09;9.70;99.90
58413;DHT22;44209;52.952;6.790;2022-12-29T07:32:34;9.70;99.90
58413;DHT22;44209;52.952;6.790;2022-12-29T07:35:00;9.70;99.90
58413;DHT22;44209;52.952;6.790;2022-12-29T07:37:26;9.70;99.90
58413;DHT22;44209;52.952;6.790;2022-12-29T07:39:52;9.70;99.90
58413;DHT22;44209;52.952;6.790;2022-12-29T07:42:17;9.70;99.90
58413;DHT22;44209;52.952;6.790;2022-12-29T07:44:43;9.70;99.90
58413;DHT22;44209;52.952;6.790;2022-12-29T07:47:09;9.70;99.90
58413;DHT22;44209;52.952;6.790;2022-12-29T07:49:35;9.80;99.90
58413;DHT22;44209;52.952;6.790;2022-12-29T07:52:00;9.80;99.90
58413;DHT22;44209;52.952;6.790;2022-12-29T07:54:26;9.80;99.90
58413;DHT22;44209;52.952;6.790;2022-12-29T07:56:52;9.80;99.90
58413;DHT22;44209;52.952;6.790;2022-12-29T07:59:17;9.80;99.90
58413;DHT22;44209;52.952;6.790;2022-12-29T08:01:43;9.70;99.90
58413;DHT22;44209;52.952;6.790;2022-12-29T08:04:09;9.70;99.90
58413;DHT22;44209;52.952;6.790;2022-12-29T08:06:35;9.70;99.90
58413;DHT22;44209;52.952;6.790;2022-12-29T08:09:00;9.70;99.90
58413;DHT22;44209;52.952;6.790;2022-12-29T08:11:27;9.70;99.90
58413;DHT22;44209;52.952;6.790;2022-12-29T08:13:53;9.70;99.90
58413;DHT22;44209;52.952;6.790;2022-12-29T08:16:18;9.70;99.90
58413;DHT22;44209;52.952;6.790;2022-12-29T08:18:44;9.70;99.90
58413;DHT22;44209;52.952;6.790;2022-12-29T08:21:10;9.70;99.90
58413;DHT22;44209;52.952;6.790;2022-12-29T08:23:36;9.70;99.90
58413;DHT22;44209;52.952;6.790;2022-12-29T08:26:03;9.70;99.90
58413;DHT22;44209;52.952;6.790;2022-12-29T08:28:30;9.70;99.90
58413;DHT22;44209;52.952;6.790;2022-12-29T08:31:01;9.70;99.90
58413;DHT22;44209;52.952;6.790;2022-12-29T08:33:27;9.70;99.90
58413;DHT22;44209;52.952;6.790;2022-12-29T08:36:01;9.70;99.90
58413;DHT22;44209;52.952;6.790;2022-12-29T08:38:28;9.80;99.90
58413;DHT22;44209;52.952;6.790;2022-12-29T08:40:55;9.80;99.90
58413;DHT22;44209;52.952;6.790;2022-12-29T08:43:20;9.80;99.90
58413;DHT22;44209;52.952;6.790;2022-12-29T08:45:46;9.80;99.90
58413;DHT22;44209;52.952;6.790;2022-12-29T08:48:12;9.80;99.90
58413;DHT22;44209;52.952;6.790;2022-12-29T08:50:38;9.80;99.90
58413;DHT22;44209;52.952;6.790;2022-12-29T08:53:03;9.80;99.90
58413;DHT22;44209;52.952;6.790;2022-12-29T08:55:29;9.80;99.90
58413;DHT22;44209;52.952;6.790;2022-12-29T08:57:55;9.90;99.90
58413;DHT22;44209;52.952;6.790;2022-12-29T09:00:21;9.90;99.90
58413;DHT22;44209;52.952;6.790;2022-12-29T09:02:47;9.90;99.90
58413;DHT22;44209;52.952;6.790;2022-12-29T09:05:12;9.90;99.90
58413;DHT22;44209;52.952;6.790;2022-12-29T09:07:38;10.00;99.90
58413;DHT22;44209;52.952;6.790;2022-12-29T09:10:04;10.00;99.90
58413;DHT22;44209;52.952;6.790;2022-12-29T09:12:30;10.10;99.90
58413;DHT22;44209;52.952;6.790;2022-12-29T09:14:56;10.10;99.90
58413;DHT22;44209;52.952;6.790;2022-12-29T09:17:21;10.10;99.90
58413;DHT22;44209;52.952;6.790;2022-12-29T09:20:06;10.10;99.90
58413;DHT22;44209;52.952;6.790;2022-12-29T09:22:31;10.00;99.90
58413;DHT22;44209;52.952;6.790;2022-12-29T09:24:57;9.90;99.90
58413;DHT22;44209;52.952;6.790;2022-12-29T09:27:23;9.90;99.90
58413;DHT22;44209;52.952;6.790;2022-12-29T09:29:49;9.80;99.90
58413;DHT22;44209;52.952;6.790;2022-12-29T09:32:14;9.80;99.90
58413;DHT22;44209;52.952;6.790;2022-12-29T09:34:40;9.70;99.90
58413;DHT22;44209;52.952;6.790;2022-12-29T09:37:06;9.70;99.90
58413;DHT22;44209;52.952;6.790;2022-12-29T09:39:32;9.70;99.90
58413;DHT22;44209;52.952;6.790;2022-12-29T09:42:08;9.70;99.90
58413;DHT22;44209;52.952;6.790;2022-12-29T09:45:00;9.70;99.90
58413;DHT22;44209;52.952;6.790;2022-12-29T09:47:28;9.60;99.90
58413;DHT22;44209;52.952;6.790;2022-12-29T09:50:02;9.60;99.90
58413;DHT22;44209;52.952;6.790;2022-12-29T09:52:32;9.60;99.90
58413;DHT22;44209;52.952;6.790;2022-12-29T09:55:05;9.60;99.90
58413;DHT22;44209;52.952;6.790;2022-12-29T09:57:55;9.60;99.90
58413;DHT22;44209;52.952;6.790;2022-12-29T10:00:36;9.60;99.90
58413;DHT22;44209;52.952;6.790;2022-12-29T10:03:14;9.60;99.90
58413;DHT22;44209;52.952;6.790;2022-12-29T10:05:56;9.60;99.90
58413;DHT22;44209;52.952;6.790;2022-12-29T10:19:45;9.30;99.90
58413;DHT22;44209;52.952;6.790;2022-12-29T10:22:47;9.30;99.90
58413;DHT22;44209;52.952;6.790;2022-12-29T10:25:28;9.20;99.90
58413;DHT22;44209;52.952;6.790;2022-12-29T10:27:57;9.20;99.90
58413;DHT22;44209;52.952;6.790;2022-12-29T10:30:24;9.20;99.90
58413;DHT22;44209;52.952;6.790;2022-12-29T10:32:58;9.20;99.90
58413;DHT22;44209;52.952;6.790;2022-12-29T10:35:36;9.10;99.90
58413;DHT22;44209;52.952;6.790;2022-12-29T10:38:27;9.10;99.90
58413;DHT22;44209;52.952;6.790;2022-12-29T10:41:09;9.10;99.90
58413;DHT22;44209;52.952;6.790;2022-12-29T10:43:48;9.10;99.90
58413;DHT22;44209;52.952;6.790;2022-12-29T10:46:39;9.10;99.90
58413;DHT22;44209;52.952;6.790;2022-12-29T10:49:06;9.10;99.90
58413;DHT22;44209;52.952;6.790;2022-12-29T10:51:41;9.10;99.90
58413;DHT22;44209;52.952;6.790;2022-12-29T10:56:53;9.10;99.90
58413;DHT22;44209;52.952;6.790;2022-12-29T10:59:26;9.20;99.90
58413;DHT22;44209;52.952;6.790;2022-12-29T11:07:07;9.20;99.90
58413;DHT22;44209;52.952;6.790;2022-12-29T11:09:36;9.20;99.90
58413;DHT22;44209;52.952;6.790;2022-12-29T11:12:27;9.20;99.90
58413;DHT22;44209;52.952;6.790;2022-12-29T11:15:15;9.20;99.90
58413;DHT22;44209;52.952;6.790;2022-12-29T11:17:49;9.20;99.90
58413;DHT22;44209;52.952;6.790;2022-12-29T11:22:53;9.20;99.90
58413;DHT22;44209;52.952;6.790;2022-12-29T11:25:19;9.20;99.90
58413;DHT22;44209;52.952;6.790;2022-12-29T11:28:04;9.30;99.90
58413;DHT22;44209;52.952;6.790;2022-12-29T11:30:37;9.30;99.90
58413;DHT22;44209;52.952;6.790;2022-12-29T11:33:03;9.30;99.90
58413;DHT22;44209;52.952;6.790;2022-12-29T11:35:42;9.30;99.90
58413;DHT22;44209;52.952;6.790;2022-12-29T11:38:23;9.40;99.90
58413;DHT22;44209;52.952;6.790;2022-12-29T11:40:51;9.40;99.90
58413;DHT22;44209;52.952;6.790;2022-12-29T11:45:48;9.50;99.90
58413;DHT22;44209;52.952;6.790;2022-12-29T11:48:19;9.60;99.90
58413;DHT22;44209;52.952;6.790;2022-12-29T11:50:52;9.60;99.90
58413;DHT22;44209;52.952;6.790;2022-12-29T11:53:24;9.60;99.90
58413;DHT22;44209;52.952;6.790;2022-12-29T11:55:59;9.60;99.90
58413;DHT22;44209;52.952;6.790;2022-12-29T11:58:34;9.60;99.90
58413;DHT22;44209;52.952;6.790;2022-12-29T12:01:32;9.50;99.90
58413;DHT22;44209;52.952;6.790;2022-12-29T12:06:29;9.50;99.90
58413;DHT22;44209;52.952;6.790;2022-12-29T12:09:02;9.50;99.90
58413;DHT22;44209;52.952;6.790;2022-12-29T12:11:34;9.50;99.90
58413;DHT22;44209;52.952;6.790;2022-12-29T12:16:45;9.50;99.90
58413;DHT22;44209;52.952;6.790;2022-12-29T12:22:14;9.50;99.90
58413;DHT22;44209;52.952;6.790;2022-12-29T12:24:54;9.60;99.90
58413;DHT22;44209;52.952;6.790;2022-12-29T12:30:21;9.80;99.90
58413;DHT22;44209;52.952;6.790;2022-12-29T12:33:14;9.90;99.90
58413;DHT22;44209;52.952;6.790;2022-12-29T12:41:13;10.10;99.90
58413;DHT22;44209;52.952;6.790;2022-12-29T12:44:02;10.10;99.90
58413;DHT22;44209;52.952;6.790;2022-12-29T12:49:45;10.10;99.90
58413;DHT22;44209;52.952;6.790;2022-12-29T12:58:12;9.90;99.90
58413;DHT22;44209;52.952;6.790;2022-12-29T13:12:30;9.80;99.90
58413;DHT22;44209;52.952;6.790;2022-12-29T13:26:19;9.90;99.90
58413;DHT22;44209;52.952;6.790;2022-12-29T13:37:07;9.90;99.90
58413;DHT22;44209;52.952;6.790;2022-12-29T13:39:37;9.90;99.90
58413;DHT22;44209;52.952;6.790;2022-12-29T13:42:04;9.80;99.90
58413;DHT22;44209;52.952;6.790;2022-12-29T13:44:37;9.80;99.90
58413;DHT22;44209;52.952;6.790;2022-12-29T13:47:25;9.80;99.90
58413;DHT22;44209;52.952;6.790;2022-12-29T13:49:53;9.70;99.90
58413;DHT22;44209;52.952;6.790;2022-12-29T13:52:36;9.70;99.90
58413;DHT22;44209;52.952;6.790;2022-12-29T13:58:04;9.70;99.90
58413;DHT22;44209;52.952;6.790;2022-12-29T14:03:53;9.70;99.90
58413;DHT22;44209;52.952;6.790;2022-12-29T14:06:30;9.60;99.90
58413;DHT22;44209;52.952;6.790;2022-12-29T14:09:04;9.60;99.90
58413;DHT22;44209;52.952;6.790;2022-12-29T14:11:39;9.60;99.90
58413;DHT22;44209;52.952;6.790;2022-12-29T14:14:16;9.50;99.90
58413;DHT22;44209;52.952;6.790;2022-12-29T14:16:43;9.50;99.90
58413;DHT22;44209;52.952;6.790;2022-12-29T14:21:57;9.40;99.90
58413;DHT22;44209;52.952;6.790;2022-12-29T14:26:56;9.40;99.90
58413;DHT22;44209;52.952;6.790;2022-12-29T14:31:54;9.30;99.90
58413;DHT22;44209;52.952;6.790;2022-12-29T14:36:59;9.30;99.90
58413;DHT22;44209;52.952;6.790;2022-12-29T14:39:38;9.20;99.90
58413;DHT22;44209;52.952;6.790;2022-12-29T14:42:05;9.20;99.90
58413;DHT22;44209;52.952;6.790;2022-12-29T14:44:32;9.20;99.90
58413;DHT22;44209;52.952;6.790;2022-12-29T14:47:01;9.20;99.90
58413;DHT22;44209;52.952;6.790;2022-12-29T14:49:32;9.20;99.90
58413;DHT22;44209;52.952;6.790;2022-12-29T14:52:13;9.10;99.90
58413;DHT22;44209;52.952;6.790;2022-12-29T14:54:56;9.20;99.90
58413;DHT22;44209;52.952;6.790;2022-12-29T14:57:34;9.10;99.90
58413;DHT22;44209;52.952;6.790;2022-12-29T15:02:40;9.00;99.90
58413;DHT22;44209;52.952;6.790;2022-12-29T15:05:24;9.00;99.90
58413;DHT22;44209;52.952;6.790;2022-12-29T15:07:53;9.00;99.90
58413;DHT22;44209;52.952;6.790;2022-12-29T15:10:20;9.00;99.90
58413;DHT22;44209;52.952;6.790;2022-12-29T15:12:49;9.00;99.90
58413;DHT22;44209;52.952;6.790;2022-12-29T15:15:27;8.90;99.90
58413;DHT22;44209;52.952;6.790;2022-12-29T15:17:55;8.90;99.90
58413;DHT22;44209;52.952;6.790;2022-12-29T15:23:04;8.80;99.90
58413;DHT22;44209;52.952;6.790;2022-12-29T15:25:33;8.80;99.90
58413;DHT22;44209;52.952;6.790;2022-12-29T15:28:03;8.80;99.90
58413;DHT22;44209;52.952;6.790;2022-12-29T15:30:30;8.70;99.90
58413;DHT22;44209;52.952;6.790;2022-12-29T15:32:56;8.70;99.90
58413;DHT22;44209;52.952;6.790;2022-12-29T15:35:32;8.70;99.90
58413;DHT22;44209;52.952;6.790;2022-12-29T15:37:59;8.60;99.90
58413;DHT22;44209;52.952;6.790;2022-12-29T15:40:29;8.60;99.90
58413;DHT22;44209;52.952;6.790;2022-12-29T15:45:36;8.60;99.90
58413;DHT22;44209;52.952;6.790;2022-12-29T15:48:03;8.60;99.90
58413;DHT22;44209;52.952;6.790;2022-12-29T15:50:32;8.60;99.90
58413;DHT22;44209;52.952;6.790;2022-12-29T15:52:59;8.60;99.90
58413;DHT22;44209;52.952;6.790;2022-12-29T15:55:33;8.60;99.90
58413;DHT22;44209;52.952;6.790;2022-12-29T15:58:02;8.60;99.90
58413;DHT22;44209;52.952;6.790;2022-12-29T16:00:32;8.50;99.90
58413;DHT22;44209;52.952;6.790;2022-12-29T16:03:01;8.50;99.90
58413;DHT22;44209;52.952;6.790;2022-12-29T16:05:35;8.50;99.90
58413;DHT22;44209;52.952;6.790;2022-12-29T16:08:02;8.50;99.90
58413;DHT22;44209;52.952;6.790;2022-12-29T16:10:36;8.50;99.90
58413;DHT22;44209;52.952;6.790;2022-12-29T16:15:40;8.50;99.90
58413;DHT22;44209;52.952;6.790;2022-12-29T16:18:11;8.50;99.90
58413;DHT22;44209;52.952;6.790;2022-12-29T16:20:42;8.60;99.90
58413;DHT22;44209;52.952;6.790;2022-12-29T16:23:18;8.60;99.90
58413;DHT22;44209;52.952;6.790;2022-12-29T16:25:45;8.70;99.90
58413;DHT22;44209;52.952;6.790;2022-12-29T16:28:22;8.70;99.90
58413;DHT22;44209;52.952;6.790;2022-12-29T16:31:20;8.60;99.90
58413;DHT22;44209;52.952;6.790;2022-12-29T16:33:54;8.60;99.90
58413;DHT22;44209;52.952;6.790;2022-12-29T16:36:31;8.60;99.90
58413;DHT22;44209;52.952;6.790;2022-12-29T16:41:57;8.60;99.90
58413;DHT22;44209;52.952;6.790;2022-12-29T16:44:26;8.60;99.90
58413;DHT22;44209;52.952;6.790;2022-12-29T16:49:40;8.60;99.90
58413;DHT22;44209;52.952;6.790;2022-12-29T16:54:49;8.50;99.90
58413;DHT22;44209;52.952;6.790;2022-12-29T16:57:19;8.50;99.90
58413;DHT22;44209;52.952;6.790;2022-12-29T16:59:46;8.40;99.90
58413;DHT22;44209;52.952;6.790;2022-12-29T17:02:16;8.30;99.90
58413;DHT22;44209;52.952;6.790;2022-12-29T17:04:43;8.30;99.90
58413;DHT22;44209;52.952;6.790;2022-12-29T17:07:22;8.10;99.90
58413;DHT22;44209;52.952;6.790;2022-12-29T17:09:48;8.00;99.90
58413;DHT22;44209;52.952;6.790;2022-12-29T17:12:18;7.90;99.90
58413;DHT22;44209;52.952;6.790;2022-12-29T17:14:49;7.80;99.90
58413;DHT22;44209;52.952;6.790;2022-12-29T17:17:19;7.70;99.90
58413;DHT22;44209;52.952;6.790;2022-12-29T17:19:55;7.70;99.90
58413;DHT22;44209;52.952;6.790;2022-12-29T17:22:27;7.60;99.90
58413;DHT22;44209;52.952;6.790;2022-12-29T17:24:55;7.60;99.90
58413;DHT22;44209;52.952;6.790;2022-12-29T17:27:31;7.50;99.90
58413;DHT22;44209;52.952;6.790;2022-12-29T17:30:03;7.50;99.90
58413;DHT22;44209;52.952;6.790;2022-12-29T17:32:29;7.40;99.90
58413;DHT22;44209;52.952;6.790;2022-12-29T17:34:55;7.40;99.90
58413;DHT22;44209;52.952;6.790;2022-12-29T17:39:49;7.30;99.90
58413;DHT22;44209;52.952;6.790;2022-12-29T17:42:16;7.30;99.90
58413;DHT22;44209;52.952;6.790;2022-12-29T17:44:43;7.30;99.90
58413;DHT22;44209;52.952;6.790;2022-12-29T17:47:10;7.20;99.90
58413;DHT22;44209;52.952;6.790;2022-12-29T17:49:36;7.20;99.90
58413;DHT22;44209;52.952;6.790;2022-12-29T17:52:02;7.10;99.90
58413;DHT22;44209;52.952;6.790;2022-12-29T17:54:28;7.20;99.90
58413;DHT22;44209;52.952;6.790;2022-12-29T17:56:54;7.20;99.90
58413;DHT22;44209;52.952;6.790;2022-12-29T17:59:20;7.20;99.90
58413;DHT22;44209;52.952;6.790;2022-12-29T18:01:47;7.30;99.90
58413;DHT22;44209;52.952;6.790;2022-12-29T18:04:16;7.30;99.90
58413;DHT22;44209;52.952;6.790;2022-12-29T18:06:43;7.30;99.90
58413;DHT22;44209;52.952;6.790;2022-12-29T18:09:09;7.40;99.90
58413;DHT22;44209;52.952;6.790;2022-12-29T18:11:42;7.40;99.90
58413;DHT22;44209;52.952;6.790;2022-12-29T18:14:16;7.50;99.90
58413;DHT22;44209;52.952;6.790;2022-12-29T18:16:42;7.50;99.90
58413;DHT22;44209;52.952;6.790;2022-12-29T18:19:08;7.50;99.90
58413;DHT22;44209;52.952;6.790;2022-12-29T18:21:35;7.60;99.90
58413;DHT22;44209;52.952;6.790;2022-12-29T18:24:02;7.70;99.90
58413;DHT22;44209;52.952;6.790;2022-12-29T18:26:28;7.70;99.90
58413;DHT22;44209;52.952;6.790;2022-12-29T18:28:57;7.80;99.90